sensor_id;sensor_type;location;lat;lon;timestamp;temperature;humidity
40702;DHT22;26387;50.114;8.662;2022-09-29T00:00:58;12.00;92.40
40702;DHT22;26387;50.114;8.662;2022-09-29T00:03:26;12.00;92.40
40702;DHT22;26387;50.114;8.662;2022-09-29T00:05:53;12.00;92.60
40702;DHT22;26387;50.114;8.662;2022-09-29T00:08:19;12.00;92.60
40702;DHT22;26387;50.114;8.662;2022-09-29T00:10:45;11.90;92.60
40702;DHT22;26387;50.114;8.662;2022-09-29T00:13:11;11.90;92.70
40702;DHT22;26387;50.114;8.662;2022-09-29T00:15:37;11.90;92.80
40702;DHT22;26387;50.114;8.662;2022-09-29T00:18:02;11.90;92.90
40702;DHT22;26387;50.114;8.662;2022-09-29T00:20:28;11.80;92.90
40702;DHT22;26387;50.114;8.662;2022-09-29T00:22:54;11.90;93.00
40702;DHT22;26387;50.114;8.662;2022-09-29T00:25:19;11.90;93.00
40702;DHT22;26387;50.114;8.662;2022-09-29T00:27:45;12.00;92.90
40702;DHT22;26387;50.114;8.662;2022-09-29T00:30:10;12.00;92.90
40702;DHT22;26387;50.114;8.662;2022-09-29T00:32:36;12.00;92.90
40702;DHT22;26387;50.114;8.662;2022-09-29T00:35:01;12.00;92.90
40702;DHT22;26387;50.114;8.662;2022-09-29T00:37:27;12.00;93.00
40702;DHT22;26387;50.114;8.662;2022-09-29T00:39:52;11.90;93.00
40702;DHT22;26387;50.114;8.662;2022-09-29T00:42:18;12.00;93.20
40702;DHT22;26387;50.114;8.662;2022-09-29T00:47:15;12.00;92.80
40702;DHT22;26387;50.114;8.662;2022-09-29T00:49:50;12.00;93.00
40702;DHT22;26387;50.114;8.662;2022-09-29T00:52:26;11.90;93.10
40702;DHT22;26387;50.114;8.662;2022-09-29T00:55:01;12.00;93.10
40702;DHT22;26387;50.114;8.662;2022-09-29T00:57:29;12.00;93.10
40702;DHT22;26387;50.114;8.662;2022-09-29T01:00:09;11.90;93.20
40702;DHT22;26387;50.114;8.662;2022-09-29T01:02:37;11.90;93.30
40702;DHT22;26387;50.114;8.662;2022-09-29T01:05:04;11.90;93.40
40702;DHT22;26387;50.114;8.662;2022-09-29T01:07:31;11.80;93.40
40702;DHT22;26387;50.114;8.662;2022-09-29T01:09:58;11.80;93.50
40702;DHT22;26387;50.114;8.662;2022-09-29T01:12:24;11.80;93.50
40702;DHT22;26387;50.114;8.662;2022-09-29T01:14:50;11.80;93.50
40702;DHT22;26387;50.114;8.662;2022-09-29T01:17:16;11.80;93.70
40702;DHT22;26387;50.114;8.662;2022-09-29T01:25:07;11.80;93.60
40702;DHT22;26387;50.114;8.662;2022-09-29T01:30:07;11.80;93.50
40702;DHT22;26387;50.114;8.662;2022-09-29T01:35:29;11.70;93.70
40702;DHT22;26387;50.114;8.662;2022-09-29T01:40:24;11.70;93.70
40702;DHT22;26387;50.114;8.662;2022-09-29T01:42:53;11.70;93.80
40702;DHT22;26387;50.114;8.662;2022-09-29T01:47:47;11.50;93.90
40702;DHT22;26387;50.114;8.662;2022-09-29T01:50:16;11.50;94.20
40702;DHT22;26387;50.114;8.662;2022-09-29T01:52:47;11.40;94.30
40702;DHT22;26387;50.114;8.662;2022-09-29T01:55:17;11.40;94.40
40702;DHT22;26387;50.114;8.662;2022-09-29T02:00:18;11.30;94.70
40702;DHT22;26387;50.114;8.662;2022-09-29T02:02:52;11.30;94.70
40702;DHT22;26387;50.114;8.662;2022-09-29T02:07:50;11.20;94.70
40702;DHT22;26387;50.114;8.662;2022-09-29T02:10:18;11.20;94.60
40702;DHT22;26387;50.114;8.662;2022-09-29T02:12:46;11.20;94.70
40702;DHT22;26387;50.114;8.662;2022-09-29T02:15:14;11.20;94.70
40702;DHT22;26387;50.114;8.662;2022-09-29T02:17:42;11.20;94.80
40702;DHT22;26387;50.114;8.662;2022-09-29T02:20:10;11.10;94.80
40702;DHT22;26387;50.114;8.662;2022-09-29T02:22:36;11.10;94.90
40702;DHT22;26387;50.114;8.662;2022-09-29T02:25:02;11.10;94.90
40702;DHT22;26387;50.114;8.662;2022-09-29T02:27:28;11.10;94.90
40702;DHT22;26387;50.114;8.662;2022-09-29T02:29:54;11.10;95.00
40702;DHT22;26387;50.114;8.662;2022-09-29T02:32:20;11.10;95.00
40702;DHT22;26387;50.114;8.662;2022-09-29T02:34:46;11.10;95.00
40702;DHT22;26387;50.114;8.662;2022-09-29T02:37:50;11.20;95.00
40702;DHT22;26387;50.114;8.662;2022-09-29T02:42:44;11.10;95.10
40702;DHT22;26387;50.114;8.662;2022-09-29T02:45:22;11.10;95.10
40702;DHT22;26387;50.114;8.662;2022-09-29T02:50:30;11.10;95.20
40702;DHT22;26387;50.114;8.662;2022-09-29T02:53:03;11.20;95.00
40702;DHT22;26387;50.114;8.662;2022-09-29T02:55:43;11.20;95.00
40702;DHT22;26387;50.114;8.662;2022-09-29T02:58:15;11.30;94.80
40702;DHT22;26387;50.114;8.662;2022-09-29T03:00:42;11.30;94.70
40702;DHT22;26387;50.114;8.662;2022-09-29T03:03:08;11.30;94.90
40702;DHT22;26387;50.114;8.662;2022-09-29T03:05:34;11.20;95.00
40702;DHT22;26387;50.114;8.662;2022-09-29T03:07:59;11.20;94.90
40702;DHT22;26387;50.114;8.662;2022-09-29T03:10:25;11.20;95.00
40702;DHT22;26387;50.114;8.662;2022-09-29T03:12:51;11.20;95.00
40702;DHT22;26387;50.114;8.662;2022-09-29T03:15:16;11.30;95.00
40702;DHT22;26387;50.114;8.662;2022-09-29T03:17:42;11.30;95.00
40702;DHT22;26387;50.114;8.662;2022-09-29T03:20:08;11.30;94.80
40702;DHT22;26387;50.114;8.662;2022-09-29T03:22:33;11.30;94.70
40702;DHT22;26387;50.114;8.662;2022-09-29T03:24:59;11.40;94.70
40702;DHT22;26387;50.114;8.662;2022-09-29T03:27:24;11.30;94.80
40702;DHT22;26387;50.114;8.662;2022-09-29T03:29:50;11.30;94.90
40702;DHT22;26387;50.114;8.662;2022-09-29T03:32:16;11.30;95.10
40702;DHT22;26387;50.114;8.662;2022-09-29T03:34:41;11.30;95.10
40702;DHT22;26387;50.114;8.662;2022-09-29T03:37:07;11.20;95.10
40702;DHT22;26387;50.114;8.662;2022-09-29T03:39:32;11.20;95.30
40702;DHT22;26387;50.114;8.662;2022-09-29T03:41:58;11.20;95.30
40702;DHT22;26387;50.114;8.662;2022-09-29T03:44:23;11.30;95.30
40702;DHT22;26387;50.114;8.662;2022-09-29T03:46:49;11.30;95.50
40702;DHT22;26387;50.114;8.662;2022-09-29T03:49:14;11.30;95.60
40702;DHT22;26387;50.114;8.662;2022-09-29T03:51:40;11.30;95.60
40702;DHT22;26387;50.114;8.662;2022-09-29T03:54:06;11.30;95.60
40702;DHT22;26387;50.114;8.662;2022-09-29T03:56:32;11.40;95.60
40702;DHT22;26387;50.114;8.662;2022-09-29T03:58:57;11.40;95.70
40702;DHT22;26387;50.114;8.662;2022-09-29T04:01:23;11.40;95.90
40702;DHT22;26387;50.114;8.662;2022-09-29T04:03:48;11.50;95.70
40702;DHT22;26387;50.114;8.662;2022-09-29T04:06:13;11.40;95.70
40702;DHT22;26387;50.114;8.662;2022-09-29T04:08:39;11.40;95.90
40702;DHT22;26387;50.114;8.662;2022-09-29T04:11:04;11.40;95.90
40702;DHT22;26387;50.114;8.662;2022-09-29T04:13:30;11.40;95.80
40702;DHT22;26387;50.114;8.662;2022-09-29T04:15:59;11.40;95.90
40702;DHT22;26387;50.114;8.662;2022-09-29T04:18:24;11.40;95.80
40702;DHT22;26387;50.114;8.662;2022-09-29T04:20:50;11.50;95.90
40702;DHT22;26387;50.114;8.662;2022-09-29T04:23:16;11.50;96.00
40702;DHT22;26387;50.114;8.662;2022-09-29T04:25:43;11.50;96.00
40702;DHT22;26387;50.114;8.662;2022-09-29T04:28:09;11.50;95.90
40702;DHT22;26387;50.114;8.662;2022-09-29T04:30:34;11.60;95.90
40702;DHT22;26387;50.114;8.662;2022-09-29T04:32:59;11.60;95.90
40702;DHT22;26387;50.114;8.662;2022-09-29T04:35:25;11.60;95.80
40702;DHT22;26387;50.114;8.662;2022-09-29T04:37:53;11.50;95.90
40702;DHT22;26387;50.114;8.662;2022-09-29T04:40:18;11.50;96.00
40702;DHT22;26387;50.114;8.662;2022-09-29T04:42:44;11.50;96.10
40702;DHT22;26387;50.114;8.662;2022-09-29T04:45:10;11.50;96.10
40702;DHT22;26387;50.114;8.662;2022-09-29T04:47:35;11.50;96.10
40702;DHT22;26387;50.114;8.662;2022-09-29T04:50:01;11.50;96.20
40702;DHT22;26387;50.114;8.662;2022-09-29T04:52:26;11.50;96.00
40702;DHT22;26387;50.114;8.662;2022-09-29T04:54:51;11.60;96.00
40702;DHT22;26387;50.114;8.662;2022-09-29T04:57:17;11.60;96.00
40702;DHT22;26387;50.114;8.662;2022-09-29T04:59:42;11.50;96.10
40702;DHT22;26387;50.114;8.662;2022-09-29T05:02:08;11.50;96.20
40702;DHT22;26387;50.114;8.662;2022-09-29T05:04:33;11.50;96.10
40702;DHT22;26387;50.114;8.662;2022-09-29T05:06:59;11.50;96.20
40702;DHT22;26387;50.114;8.662;2022-09-29T05:09:24;11.60;96.20
40702;DHT22;26387;50.114;8.662;2022-09-29T05:11:50;11.70;96.00
40702;DHT22;26387;50.114;8.662;2022-09-29T05:14:15;11.70;95.00
40702;DHT22;26387;50.114;8.662;2022-09-29T05:16:41;11.80;94.70
40702;DHT22;26387;50.114;8.662;2022-09-29T05:19:06;11.90;94.40
40702;DHT22;26387;50.114;8.662;2022-09-29T05:21:32;11.90;94.20
40702;DHT22;26387;50.114;8.662;2022-09-29T05:23:57;11.90;94.20
40702;DHT22;26387;50.114;8.662;2022-09-29T05:26:22;12.00;94.00
40702;DHT22;26387;50.114;8.662;2022-09-29T05:28:48;12.00;94.00
40702;DHT22;26387;50.114;8.662;2022-09-29T05:31:14;12.00;94.00
40702;DHT22;26387;50.114;8.662;2022-09-29T05:33:39;12.00;94.10
40702;DHT22;26387;50.114;8.662;2022-09-29T05:36:09;12.00;94.00
40702;DHT22;26387;50.114;8.662;2022-09-29T05:38:35;12.00;93.90
40702;DHT22;26387;50.114;8.662;2022-09-29T05:41:05;12.10;93.90
40702;DHT22;26387;50.114;8.662;2022-09-29T05:43:30;12.10;93.90
40702;DHT22;26387;50.114;8.662;2022-09-29T05:45:59;12.10;93.80
40702;DHT22;26387;50.114;8.662;2022-09-29T05:48:26;12.10;93.80
40702;DHT22;26387;50.114;8.662;2022-09-29T05:50:53;12.10;93.70
40702;DHT22;26387;50.114;8.662;2022-09-29T05:53:19;12.10;93.80
40702;DHT22;26387;50.114;8.662;2022-09-29T05:55:44;12.10;93.70
40702;DHT22;26387;50.114;8.662;2022-09-29T05:58:10;12.10;93.80
40702;DHT22;26387;50.114;8.662;2022-09-29T06:00:35;12.10;93.90
40702;DHT22;26387;50.114;8.662;2022-09-29T06:03:01;12.10;93.90
40702;DHT22;26387;50.114;8.662;2022-09-29T06:05:26;12.10;93.90
40702;DHT22;26387;50.114;8.662;2022-09-29T06:07:52;12.10;93.90
40702;DHT22;26387;50.114;8.662;2022-09-29T06:10:18;12.10;94.00
40702;DHT22;26387;50.114;8.662;2022-09-29T06:12:44;12.20;94.00
40702;DHT22;26387;50.114;8.662;2022-09-29T06:15:09;12.20;94.00
40702;DHT22;26387;50.114;8.662;2022-09-29T06:17:35;12.10;94.00
40702;DHT22;26387;50.114;8.662;2022-09-29T06:20:01;12.10;94.00
40702;DHT22;26387;50.114;8.662;2022-09-29T06:22:26;12.10;94.10
40702;DHT22;26387;50.114;8.662;2022-09-29T06:24:52;12.10;94.00
40702;DHT22;26387;50.114;8.662;2022-09-29T06:27:18;12.10;94.00
40702;DHT22;26387;50.114;8.662;2022-09-29T06:29:44;12.10;94.20
40702;DHT22;26387;50.114;8.662;2022-09-29T06:32:09;12.10;94.30
40702;DHT22;26387;50.114;8.662;2022-09-29T06:34:35;12.10;94.30
40702;DHT22;26387;50.114;8.662;2022-09-29T06:37:20;12.10;94.40
40702;DHT22;26387;50.114;8.662;2022-09-29T06:40:03;12.10;94.90
40702;DHT22;26387;50.114;8.662;2022-09-29T06:42:29;12.00;95.10
40702;DHT22;26387;50.114;8.662;2022-09-29T06:44:55;12.00;95.20
40702;DHT22;26387;50.114;8.662;2022-09-29T06:47:21;11.90;95.40
40702;DHT22;26387;50.114;8.662;2022-09-29T06:49:46;11.90;95.50
40702;DHT22;26387;50.114;8.662;2022-09-29T06:52:13;11.90;95.60
40702;DHT22;26387;50.114;8.662;2022-09-29T06:54:38;11.90;95.50
40702;DHT22;26387;50.114;8.662;2022-09-29T06:57:03;12.00;95.40
40702;DHT22;26387;50.114;8.662;2022-09-29T06:59:29;12.00;95.50
40702;DHT22;26387;50.114;8.662;2022-09-29T07:01:54;12.00;95.30
40702;DHT22;26387;50.114;8.662;2022-09-29T07:04:20;11.90;95.40
40702;DHT22;26387;50.114;8.662;2022-09-29T07:06:46;11.90;95.50
40702;DHT22;26387;50.114;8.662;2022-09-29T07:09:12;12.10;95.40
40702;DHT22;26387;50.114;8.662;2022-09-29T07:11:44;12.10;95.00
40702;DHT22;26387;50.114;8.662;2022-09-29T07:14:14;12.20;94.90
40702;DHT22;26387;50.114;8.662;2022-09-29T07:16:40;12.20;94.80
40702;DHT22;26387;50.114;8.662;2022-09-29T07:19:06;12.30;94.60
40702;DHT22;26387;50.114;8.662;2022-09-29T07:21:31;12.30;94.50
40702;DHT22;26387;50.114;8.662;2022-09-29T07:23:57;12.30;94.20
40702;DHT22;26387;50.114;8.662;2022-09-29T07:26:22;12.20;94.50
40702;DHT22;26387;50.114;8.662;2022-09-29T07:28:48;12.30;94.30
40702;DHT22;26387;50.114;8.662;2022-09-29T07:31:17;12.20;94.40
40702;DHT22;26387;50.114;8.662;2022-09-29T07:33:44;12.20;94.40
40702;DHT22;26387;50.114;8.662;2022-09-29T07:36:10;12.30;94.30
40702;DHT22;26387;50.114;8.662;2022-09-29T07:38:36;12.40;93.90
40702;DHT22;26387;50.114;8.662;2022-09-29T07:41:08;12.40;93.80
40702;DHT22;26387;50.114;8.662;2022-09-29T07:43:34;12.30;93.90
40702;DHT22;26387;50.114;8.662;2022-09-29T07:46:00;12.30;94.00
40702;DHT22;26387;50.114;8.662;2022-09-29T07:48:26;12.40;94.10
40702;DHT22;26387;50.114;8.662;2022-09-29T07:50:58;12.40;94.00
40702;DHT22;26387;50.114;8.662;2022-09-29T07:53:24;12.40;94.00
40702;DHT22;26387;50.114;8.662;2022-09-29T07:55:49;12.50;93.80
40702;DHT22;26387;50.114;8.662;2022-09-29T07:58:15;12.50;93.80
40702;DHT22;26387;50.114;8.662;2022-09-29T08:00:40;12.50;94.00
40702;DHT22;26387;50.114;8.662;2022-09-29T08:03:05;12.60;93.70
40702;DHT22;26387;50.114;8.662;2022-09-29T08:05:34;12.70;93.50
40702;DHT22;26387;50.114;8.662;2022-09-29T08:08:00;12.70;93.40
40702;DHT22;26387;50.114;8.662;2022-09-29T08:10:26;12.60;93.20
40702;DHT22;26387;50.114;8.662;2022-09-29T08:12:52;12.60;93.50
40702;DHT22;26387;50.114;8.662;2022-09-29T08:15:17;12.60;93.20
40702;DHT22;26387;50.114;8.662;2022-09-29T08:17:43;12.70;93.40
40702;DHT22;26387;50.114;8.662;2022-09-29T08:20:08;12.80;93.20
40702;DHT22;26387;50.114;8.662;2022-09-29T08:22:34;12.80;92.70
40702;DHT22;26387;50.114;8.662;2022-09-29T08:24:59;12.90;93.00
40702;DHT22;26387;50.114;8.662;2022-09-29T08:27:25;12.80;93.00
40702;DHT22;26387;50.114;8.662;2022-09-29T08:29:51;12.90;92.90
40702;DHT22;26387;50.114;8.662;2022-09-29T08:32:16;13.00;92.70
40702;DHT22;26387;50.114;8.662;2022-09-29T08:34:41;13.20;92.50
40702;DHT22;26387;50.114;8.662;2022-09-29T08:37:07;13.30;92.50
40702;DHT22;26387;50.114;8.662;2022-09-29T08:39:33;13.20;92.20
40702;DHT22;26387;50.114;8.662;2022-09-29T08:42:10;13.20;92.20
40702;DHT22;26387;50.114;8.662;2022-09-29T09:01:49;13.40;92.10
40702;DHT22;26387;50.114;8.662;2022-09-29T09:17:02;14.70;99.90
40702;DHT22;26387;50.114;8.662;2022-09-29T09:29:38;14.90;88.00
40702;DHT22;26387;50.114;8.662;2022-09-29T09:32:13;15.20;86.50
40702;DHT22;26387;50.114;8.662;2022-09-29T09:34:50;15.10;86.40
40702;DHT22;26387;50.114;8.662;2022-09-29T09:37:17;15.00;86.50
40702;DHT22;26387;50.114;8.662;2022-09-29T09:42:21;15.20;86.30
40702;DHT22;26387;50.114;8.662;2022-09-29T09:44:49;15.30;85.60
40702;DHT22;26387;50.114;8.662;2022-09-29T09:50:18;15.20;86.50
40702;DHT22;26387;50.114;8.662;2022-09-29T09:55:16;15.30;86.50
40702;DHT22;26387;50.114;8.662;2022-09-29T09:58:00;15.40;86.00
40702;DHT22;26387;50.114;8.662;2022-09-29T10:00:34;15.50;85.80
40702;DHT22;26387;50.114;8.662;2022-09-29T10:03:03;15.20;86.00
40702;DHT22;26387;50.114;8.662;2022-09-29T10:05:31;15.20;86.20
40702;DHT22;26387;50.114;8.662;2022-09-29T10:07:58;15.50;86.10
40702;DHT22;26387;50.114;8.662;2022-09-29T11:06:34;17.00;79.40
40702;DHT22;26387;50.114;8.662;2022-09-29T14:01:56;20.40;61.20
40702;DHT22;26387;50.114;8.662;2022-09-29T14:40:56;23.60;50.50
40702;DHT22;26387;50.114;8.662;2022-09-29T14:49:19;19.90;55.40
40702;DHT22;26387;50.114;8.662;2022-09-29T14:54:47;19.60;56.20
40702;DHT22;26387;50.114;8.662;2022-09-29T15:02:29;19.40;56.80
40702;DHT22;26387;50.114;8.662;2022-09-29T15:04:56;19.50;56.20
40702;DHT22;26387;50.114;8.662;2022-09-29T15:07:23;19.60;56.80
40702;DHT22;26387;50.114;8.662;2022-09-29T15:09:50;19.70;57.00
40702;DHT22;26387;50.114;8.662;2022-09-29T15:12:21;19.80;57.10
40702;DHT22;26387;50.114;8.662;2022-09-29T15:14:47;19.70;57.10
40702;DHT22;26387;50.114;8.662;2022-09-29T15:27:18;19.20;55.70
40702;DHT22;26387;50.114;8.662;2022-09-29T15:29:45;19.10;56.90
40702;DHT22;26387;50.114;8.662;2022-09-29T15:32:25;19.00;57.00
40702;DHT22;26387;50.114;8.662;2022-09-29T15:34:52;19.00;57.70
40702;DHT22;26387;50.114;8.662;2022-09-29T15:37:24;19.00;58.30
40702;DHT22;26387;50.114;8.662;2022-09-29T15:39:50;19.00;58.60
40702;DHT22;26387;50.114;8.662;2022-09-29T15:42:18;18.90;57.30
40702;DHT22;26387;50.114;8.662;2022-09-29T15:44:49;18.90;57.20
40702;DHT22;26387;50.114;8.662;2022-09-29T15:47:20;18.80;57.40
40702;DHT22;26387;50.114;8.662;2022-09-29T15:49:49;18.70;57.70
40702;DHT22;26387;50.114;8.662;2022-09-29T15:52:15;18.80;56.20
40702;DHT22;26387;50.114;8.662;2022-09-29T15:54:43;18.70;57.40
40702;DHT22;26387;50.114;8.662;2022-09-29T15:57:26;18.70;57.50
40702;DHT22;26387;50.114;8.662;2022-09-29T16:02:45;18.60;58.00
40702;DHT22;26387;50.114;8.662;2022-09-29T16:05:12;18.50;57.80
40702;DHT22;26387;50.114;8.662;2022-09-29T16:07:40;18.30;59.20
40702;DHT22;26387;50.114;8.662;2022-09-29T16:12:38;18.10;58.10
40702;DHT22;26387;50.114;8.662;2022-09-29T16:15:04;18.00;58.80
40702;DHT22;26387;50.114;8.662;2022-09-29T16:17:30;18.00;58.50
40702;DHT22;26387;50.114;8.662;2022-09-29T16:19:56;17.80;59.00
40702;DHT22;26387;50.114;8.662;2022-09-29T16:22:23;17.80;59.50
40702;DHT22;26387;50.114;8.662;2022-09-29T16:24:54;17.70;58.90
40702;DHT22;26387;50.114;8.662;2022-09-29T16:27:39;17.70;60.30
40702;DHT22;26387;50.114;8.662;2022-09-29T16:30:17;17.60;61.50
40702;DHT22;26387;50.114;8.662;2022-09-29T16:32:42;17.50;62.00
40702;DHT22;26387;50.114;8.662;2022-09-29T16:37:52;17.20;62.50
40702;DHT22;26387;50.114;8.662;2022-09-29T16:40:17;17.10;63.10
40702;DHT22;26387;50.114;8.662;2022-09-29T16:42:48;17.00;62.80
40702;DHT22;26387;50.114;8.662;2022-09-29T16:45:15;16.90;62.90
40702;DHT22;26387;50.114;8.662;2022-09-29T16:47:42;16.80;63.20
40702;DHT22;26387;50.114;8.662;2022-09-29T16:50:11;16.70;63.50
40702;DHT22;26387;50.114;8.662;2022-09-29T16:52:42;16.70;63.60
40702;DHT22;26387;50.114;8.662;2022-09-29T16:55:18;16.60;63.80
40702;DHT22;26387;50.114;8.662;2022-09-29T17:00:18;16.50;64.30
40702;DHT22;26387;50.114;8.662;2022-09-29T17:02:43;16.30;65.70
40702;DHT22;26387;50.114;8.662;2022-09-29T17:05:09;16.20;65.60
40702;DHT22;26387;50.114;8.662;2022-09-29T17:07:37;16.10;66.10
40702;DHT22;26387;50.114;8.662;2022-09-29T17:10:04;16.00;67.10
40702;DHT22;26387;50.114;8.662;2022-09-29T17:12:30;15.90;66.30
40702;DHT22;26387;50.114;8.662;2022-09-29T17:14:55;15.90;67.00
40702;DHT22;26387;50.114;8.662;2022-09-29T17:17:25;15.80;67.60
40702;DHT22;26387;50.114;8.662;2022-09-29T17:19:51;15.80;68.30
40702;DHT22;26387;50.114;8.662;2022-09-29T17:22:21;15.70;68.80
40702;DHT22;26387;50.114;8.662;2022-09-29T17:24:48;15.60;68.90
40702;DHT22;26387;50.114;8.662;2022-09-29T17:27:13;15.60;68.60
40702;DHT22;26387;50.114;8.662;2022-09-29T17:29:57;15.50;68.30
40702;DHT22;26387;50.114;8.662;2022-09-29T17:32:23;15.40;68.20
40702;DHT22;26387;50.114;8.662;2022-09-29T17:34:49;15.40;69.20
40702;DHT22;26387;50.114;8.662;2022-09-29T17:37:14;15.30;69.20
40702;DHT22;26387;50.114;8.662;2022-09-29T17:39:43;15.20;70.20
40702;DHT22;26387;50.114;8.662;2022-09-29T17:42:09;15.20;68.70
40702;DHT22;26387;50.114;8.662;2022-09-29T17:44:34;15.10;68.90
40702;DHT22;26387;50.114;8.662;2022-09-29T17:47:01;15.10;68.80
40702;DHT22;26387;50.114;8.662;2022-09-29T17:49:27;15.00;69.00
40702;DHT22;26387;50.114;8.662;2022-09-29T17:51:53;15.00;69.00
40702;DHT22;26387;50.114;8.662;2022-09-29T17:54:19;15.00;69.30
40702;DHT22;26387;50.114;8.662;2022-09-29T17:56:48;14.90;69.50
40702;DHT22;26387;50.114;8.662;2022-09-29T17:59:14;14.80;70.10
40702;DHT22;26387;50.114;8.662;2022-09-29T18:01:39;14.80;70.30
40702;DHT22;26387;50.114;8.662;2022-09-29T18:04:05;14.80;70.90
40702;DHT22;26387;50.114;8.662;2022-09-29T18:06:31;14.70;71.40
40702;DHT22;26387;50.114;8.662;2022-09-29T18:09:02;14.70;71.70
40702;DHT22;26387;50.114;8.662;2022-09-29T18:11:36;14.70;72.10
40702;DHT22;26387;50.114;8.662;2022-09-29T18:14:01;14.60;72.20
40702;DHT22;26387;50.114;8.662;2022-09-29T18:16:27;14.50;72.60
40702;DHT22;26387;50.114;8.662;2022-09-29T18:18:52;14.50;72.90
40702;DHT22;26387;50.114;8.662;2022-09-29T18:21:18;14.50;73.60
40702;DHT22;26387;50.114;8.662;2022-09-29T18:23:45;14.50;74.00
40702;DHT22;26387;50.114;8.662;2022-09-29T18:26:11;14.40;74.40
40702;DHT22;26387;50.114;8.662;2022-09-29T18:28:37;14.40;75.00
40702;DHT22;26387;50.114;8.662;2022-09-29T18:31:03;14.40;75.20
40702;DHT22;26387;50.114;8.662;2022-09-29T18:33:31;14.30;75.70
40702;DHT22;26387;50.114;8.662;2022-09-29T18:35:56;14.30;76.10
40702;DHT22;26387;50.114;8.662;2022-09-29T18:38:22;14.30;76.60
40702;DHT22;26387;50.114;8.662;2022-09-29T18:40:49;14.30;77.30
40702;DHT22;26387;50.114;8.662;2022-09-29T18:43:15;14.30;77.60
40702;DHT22;26387;50.114;8.662;2022-09-29T18:45:41;14.30;77.80
40702;DHT22;26387;50.114;8.662;2022-09-29T18:48:09;14.30;78.50
40702;DHT22;26387;50.114;8.662;2022-09-29T18:50:36;14.20;79.00
40702;DHT22;26387;50.114;8.662;2022-09-29T18:53:08;14.20;79.00
40702;DHT22;26387;50.114;8.662;2022-09-29T18:55:33;14.20;79.60
40702;DHT22;26387;50.114;8.662;2022-09-29T18:57:59;14.20;79.90
40702;DHT22;26387;50.114;8.662;2022-09-29T19:00:31;14.20;80.10
40702;DHT22;26387;50.114;8.662;2022-09-29T19:02:58;14.20;80.20
40702;DHT22;26387;50.114;8.662;2022-09-29T19:05:26;14.10;80.20
40702;DHT22;26387;50.114;8.662;2022-09-29T19:07:57;14.20;80.40
40702;DHT22;26387;50.114;8.662;2022-09-29T19:10:23;14.20;80.40
40702;DHT22;26387;50.114;8.662;2022-09-29T19:12:48;14.10;80.50
40702;DHT22;26387;50.114;8.662;2022-09-29T19:15:16;14.10;81.00
40702;DHT22;26387;50.114;8.662;2022-09-29T19:17:42;14.10;81.50
40702;DHT22;26387;50.114;8.662;2022-09-29T19:20:08;14.10;81.80
40702;DHT22;26387;50.114;8.662;2022-09-29T19:22:35;14.10;82.10
40702;DHT22;26387;50.114;8.662;2022-09-29T19:25:06;14.10;81.70
40702;DHT22;26387;50.114;8.662;2022-09-29T19:27:32;14.10;81.80
40702;DHT22;26387;50.114;8.662;2022-09-29T19:29:57;14.20;82.00
40702;DHT22;26387;50.114;8.662;2022-09-29T19:32:25;14.10;82.80
40702;DHT22;26387;50.114;8.662;2022-09-29T19:34:50;14.00;83.20
40702;DHT22;26387;50.114;8.662;2022-09-29T19:37:18;14.00;83.50
40702;DHT22;26387;50.114;8.662;2022-09-29T19:39:43;14.10;83.80
40702;DHT22;26387;50.114;8.662;2022-09-29T19:42:08;14.10;83.90
40702;DHT22;26387;50.114;8.662;2022-09-29T19:44:35;14.10;84.00
40702;DHT22;26387;50.114;8.662;2022-09-29T19:47:00;14.10;84.10
40702;DHT22;26387;50.114;8.662;2022-09-29T19:49:26;14.10;83.90
40702;DHT22;26387;50.114;8.662;2022-09-29T19:51:51;14.20;83.60
40702;DHT22;26387;50.114;8.662;2022-09-29T19:54:20;14.20;83.70
40702;DHT22;26387;50.114;8.662;2022-09-29T19:56:47;14.20;83.70
40702;DHT22;26387;50.114;8.662;2022-09-29T19:59:13;14.20;83.80
40702;DHT22;26387;50.114;8.662;2022-09-29T20:01:40;14.20;84.20
40702;DHT22;26387;50.114;8.662;2022-09-29T20:04:06;14.20;84.70
40702;DHT22;26387;50.114;8.662;2022-09-29T20:06:32;14.20;84.60
40702;DHT22;26387;50.114;8.662;2022-09-29T20:09:00;14.20;84.30
40702;DHT22;26387;50.114;8.662;2022-09-29T20:11:27;14.20;84.50
40702;DHT22;26387;50.114;8.662;2022-09-29T20:13:52;14.20;84.60
40702;DHT22;26387;50.114;8.662;2022-09-29T20:16:18;14.30;84.80
40702;DHT22;26387;50.114;8.662;2022-09-29T20:18:44;14.30;84.80
40702;DHT22;26387;50.114;8.662;2022-09-29T20:21:11;14.30;84.90
40702;DHT22;26387;50.114;8.662;2022-09-29T20:23:37;14.30;85.20
40702;DHT22;26387;50.114;8.662;2022-09-29T20:26:06;14.20;85.60
40702;DHT22;26387;50.114;8.662;2022-09-29T20:28:33;14.20;86.30
40702;DHT22;26387;50.114;8.662;2022-09-29T20:30:59;14.00;86.70
40702;DHT22;26387;50.114;8.662;2022-09-29T20:33:25;13.90;87.10
40702;DHT22;26387;50.114;8.662;2022-09-29T20:35:51;13.90;87.20
40702;DHT22;26387;50.114;8.662;2022-09-29T20:38:17;13.90;87.40
40702;DHT22;26387;50.114;8.662;2022-09-29T20:40:42;13.80;87.60
40702;DHT22;26387;50.114;8.662;2022-09-29T20:43:08;13.80;87.80
40702;DHT22;26387;50.114;8.662;2022-09-29T20:45:38;13.80;88.10
40702;DHT22;26387;50.114;8.662;2022-09-29T20:48:04;13.70;89.90
40702;DHT22;26387;50.114;8.662;2022-09-29T20:50:29;13.70;90.40
40702;DHT22;26387;50.114;8.662;2022-09-29T20:52:55;13.70;90.70
40702;DHT22;26387;50.114;8.662;2022-09-29T20:55:21;13.60;90.60
40702;DHT22;26387;50.114;8.662;2022-09-29T20:57:47;13.60;90.50
40702;DHT22;26387;50.114;8.662;2022-09-29T21:00:13;13.60;90.80
40702;DHT22;26387;50.114;8.662;2022-09-29T21:02:39;13.50;91.10
40702;DHT22;26387;50.114;8.662;2022-09-29T21:05:04;13.50;90.40
40702;DHT22;26387;50.114;8.662;2022-09-29T21:07:30;13.50;90.20
40702;DHT22;26387;50.114;8.662;2022-09-29T21:10:05;13.40;90.20
40702;DHT22;26387;50.114;8.662;2022-09-29T21:12:31;13.40;90.40
40702;DHT22;26387;50.114;8.662;2022-09-29T21:14:57;13.30;90.40
40702;DHT22;26387;50.114;8.662;2022-09-29T21:17:23;13.30;90.40
40702;DHT22;26387;50.114;8.662;2022-09-29T21:19:49;13.20;90.60
40702;DHT22;26387;50.114;8.662;2022-09-29T21:22:14;13.20;90.50
40702;DHT22;26387;50.114;8.662;2022-09-29T21:24:40;13.10;90.70
40702;DHT22;26387;50.114;8.662;2022-09-29T21:27:06;13.10;90.90
40702;DHT22;26387;50.114;8.662;2022-09-29T21:29:31;13.00;90.90
40702;DHT22;26387;50.114;8.662;2022-09-29T21:31:57;13.00;91.40
40702;DHT22;26387;50.114;8.662;2022-09-29T21:34:23;13.00;91.20
40702;DHT22;26387;50.114;8.662;2022-09-29T21:36:48;12.90;91.20
40702;DHT22;26387;50.114;8.662;2022-09-29T21:39:14;12.90;91.20
40702;DHT22;26387;50.114;8.662;2022-09-29T21:41:41;12.80;91.10
40702;DHT22;26387;50.114;8.662;2022-09-29T21:44:09;12.80;91.20
40702;DHT22;26387;50.114;8.662;2022-09-29T21:46:37;12.70;91.30